Oscoda, MI

2:44 AM EDT on August 22, 2017 (GMT -0400)
Oscoda-Wurtsmith

Weather History for KOSC - April, 2014

Change the Weather History Date:

Friday, April 4, 2014

  Actual Average Record
Temperature  
Mean Temperature 35 °F -  
Max Temperature 37 °F 44 °F 60 °F (2005)
Min Temperature 33 °F 27 °F 9 °F (2016)
Degree Days  
Heating Degree Days 30    
Moisture  
Dew Point 32 °F    
Average Humidity 89    
Maximum Humidity 97    
Minimum Humidity 74    
Precipitation  
Precipitation 0.55 in - - ()
Sea Level Pressure  
Sea Level Pressure 29.57 in    
Wind  
Wind Speed 9 mph (East)    
Max Wind Speed 15 mph    
Max Gust Speed 22 mph    
Visibility 6 miles    
Events Rain , Snow    
Averages and records for this station are not official NWS values.
T = Trace of Precipitation, MM = Missing Value Source: NWS Daily Summary

Daily Weather History Graph

Daily Weather History Graph

Search for Another Location

Airport or City:

Trip Planner

Search our weather history database for the weather conditions in past years. The results will help you decide how hot, cold, wet, or windy it might be!

Date:

Astronomy

Apr. 04, 2014 Rise Set
Actual Time 7:09 AM EDT 8:04 PM EDT
Civil Twilight 6:39 AM EDT 8:34 PM EDT
Nautical Twilight 6:04 AM EDT 9:09 PM EDT
Astronomical Twilight 5:27 AM EDT 9:46 PM EDT
Moon 10:16 AM EDT (4/4) 12:30 AM EDT (4/4)
Length of Visible Light 13h 54m
Length of Day
12h 55m
Waxing Crescent, 25% of the Moon is Illuminated
Apr 4
Waxing Crescent
Apr 7
First Quarter
Apr 15
Full
Apr 22
Last Quarter
Apr 29
New

Hourly Weather History & Observations

Time (EDT) Temp. Windchill Dew Point Humidity Pressure Visibility Wind Dir Wind Speed Gust Speed Precip Events Conditions
12:14 AM 35.1 °F 27.9 °F 27.9 °F 75% 29.93 in 10.0 mi ENE 9.2 mph - N/A   Overcast
12:34 AM 35.2 °F 27.6 °F 27.9 °F 74% 29.92 in 10.0 mi East 10.4 mph - N/A   Overcast
12:53 AM 35.2 °F 26.6 °F 27.7 °F 74% 29.90 in 10.0 mi East 12.7 mph - N/A   Overcast
1:14 AM 35.1 °F 28.6 °F 28.2 °F 76% 29.90 in 10.0 mi East 8.1 mph - N/A   Overcast
1:34 AM 35.1 °F 27.9 °F 28.4 °F 77% 29.87 in 10.0 mi East 9.2 mph - N/A   Overcast
1:53 AM 34.9 °F 27.1 °F 28.4 °F 77% 29.86 in 10.0 mi ENE 10.4 mph - N/A   Overcast
2:14 AM 35.1 °F 26.9 °F 28.4 °F 77% 29.85 in 10.0 mi ENE 11.5 mph - N/A   Overcast
2:34 AM 35.2 °F 28.1 °F 28.4 °F 76% 29.85 in 10.0 mi ENE 9.2 mph - N/A   Overcast
2:54 AM 35.1 °F 26.9 °F 28.6 °F 77% 29.82 in 10.0 mi ENE 11.5 mph - N/A   Overcast
3:14 AM 34.9 °F 27.7 °F 29.1 °F 79% 29.81 in 10.0 mi ENE 9.2 mph - N/A   Overcast
3:34 AM 34.7 °F 27.5 °F 29.3 °F 81% 29.79 in 10.0 mi ENE 9.2 mph - N/A   Overcast
3:54 AM 34.9 °F 27.7 °F 29.3 °F 80% 29.78 in 10.0 mi ENE 9.2 mph - N/A   Overcast
4:14 AM 35.1 °F 28.6 °F 29.5 °F 80% 29.78 in 10.0 mi ENE 8.1 mph - N/A   Overcast
4:34 AM 35.1 °F 27.4 °F 29.3 °F 80% 29.77 in 10.0 mi East 10.4 mph - N/A   Overcast
4:54 AM 35.2 °F 27.1 °F 29.1 °F 78% 29.76 in 10.0 mi East 11.5 mph - N/A   Overcast
5:14 AM 35.2 °F 27.6 °F 29.3 °F 79% 29.76 in 10.0 mi East 10.4 mph 16.1 mph N/A   Overcast
5:34 AM 35.1 °F 28.6 °F 29.3 °F 80% 29.75 in 10.0 mi East 8.1 mph - N/A   Overcast
5:54 AM 35.1 °F 28.6 °F 28.9 °F 78% 29.75 in 10.0 mi East 8.1 mph - N/A   Overcast
6:14 AM 35.1 °F 28.6 °F 28.4 °F 77% 29.73 in 10.0 mi East 8.1 mph - N/A   Overcast
6:34 AM 34.7 °F 26.4 °F 28.9 °F 79% 29.70 in 10.0 mi East 11.5 mph - N/A   Overcast
6:54 AM 34.7 °F 26.9 °F 28.9 °F 79% 29.68 in 10.0 mi East 10.4 mph - N/A   Overcast
7:14 AM 34.7 °F 26.4 °F 28.9 °F 79% 29.65 in 10.0 mi East 11.5 mph 18.4 mph N/A   Overcast
7:34 AM 34.7 °F 27.5 °F 29.1 °F 80% 29.66 in 10.0 mi East 9.2 mph - N/A   Overcast
7:54 AM 34.7 °F 27.5 °F 29.3 °F 81% 29.65 in 7.0 mi East 9.2 mph - N/A   Overcast
8:14 AM 34.0 °F 27.2 °F 30.7 °F 88% 29.65 in 2.0 mi East 8.1 mph - N/A   Overcast
8:34 AM 33.8 °F 26.4 °F 31.6 °F 92% 29.65 in 1.8 mi East 9.2 mph - N/A   Overcast
8:54 AM 33.3 °F 25.1 °F 32.0 °F 95% 29.61 in 1.5 mi East 10.4 mph - N/A Snow Light Snow
9:14 AM 33.4 °F 26.6 °F 32.0 °F 94% 29.63 in 1.8 mi East 8.1 mph - N/A   Overcast
9:34 AM 33.4 °F 26.6 °F 32.0 °F 94% 29.60 in 1.5 mi East 8.1 mph - N/A Snow Light Snow
9:53 AM 33.8 °F 26.4 °F 32.4 °F 94% 29.57 in 1.0 mi East 9.2 mph - N/A Snow Light Snow
10:14 AM 33.8 °F 27.7 °F 32.5 °F 95% 29.55 in 1.2 mi East 6.9 mph 16.1 mph N/A Snow Light Snow
10:34 AM 34.0 °F 28.8 °F 32.9 °F 96% 29.55 in 1.2 mi East 5.8 mph - N/A Snow Light Snow
10:53 AM 34.0 °F 27.2 °F 32.9 °F 96% 29.52 in 1.2 mi East 8.1 mph - N/A Snow Light Snow
11:14 AM 34.2 °F 25.7 °F 32.9 °F 95% 29.49 in 1.0 mi East 11.5 mph - N/A   Overcast
11:34 AM 34.2 °F 28.2 °F 32.9 °F 95% 29.49 in 1.0 mi East 6.9 mph - N/A   Overcast
11:54 AM 34.0 °F 28.8 °F 32.9 °F 96% 29.49 in 1.2 mi East 5.8 mph - N/A   Overcast
12:14 PM 34.2 °F 28.2 °F 33.1 °F 96% 29.47 in 1.0 mi East 6.9 mph - N/A Snow Light Snow
12:33 PM 34.2 °F 31.2 °F 33.1 °F 96% 29.46 in 1.2 mi East 3.5 mph - 0.02 in Rain Rain
12:54 PM 34.7 °F 30.6 °F 33.4 °F 95% 29.44 in 1.8 mi East 4.6 mph - 0.05 in Rain Light Rain
1:14 PM 34.7 °F 29.6 °F 33.8 °F 97% 29.43 in 1.5 mi East 5.8 mph - 0.01 in Rain Rain
1:33 PM 34.7 °F 31.8 °F 33.8 °F 97% 29.41 in 1.2 mi East 3.5 mph - 0.06 in Rain Light Rain
1:54 PM 34.7 °F - 33.8 °F 97% 29.42 in 1.5 mi Calm Calm - 0.16 in   Overcast
2:14 PM 35.1 °F 27.9 °F 34.0 °F 96% 29.43 in 1.5 mi NW 9.2 mph - 0.06 in   Overcast
2:33 PM 35.4 °F 27.8 °F 34.2 °F 95% 29.42 in 2.0 mi NNW 10.4 mph - 0.12 in   Overcast
2:54 PM 35.8 °F 33.0 °F 34.3 °F 94% 29.45 in 7.0 mi West 3.5 mph - 0.15 in Rain Light Rain
3:13 PM 35.8 °F 31.9 °F 34.0 °F 93% 29.42 in 2.0 mi North 4.6 mph - 0.02 in   Overcast
3:34 PM 35.6 °F 30.7 °F 34.0 °F 94% 29.40 in 1.5 mi NNE 5.8 mph - 0.13 in   Overcast
3:54 PM 35.8 °F 28.3 °F 34.3 °F 94% 29.36 in 2.5 mi NE 10.4 mph - 0.19 in   Overcast
4:13 PM 35.6 °F 28.0 °F 34.2 °F 94% 29.33 in 10.0 mi ENE 10.4 mph - N/A Rain Light Rain
4:34 PM 35.4 °F 30.5 °F 33.8 °F 94% 29.32 in 10.0 mi NE 5.8 mph - N/A   Overcast
4:54 PM 35.8 °F 27.8 °F 34.3 °F 94% 29.38 in 10.0 mi SW 11.5 mph 20.7 mph N/A   Overcast
5:13 PM 36.5 °F 29.2 °F 35.1 °F 95% 29.37 in 10.0 mi SSW 10.4 mph - N/A   Overcast
5:34 PM 36.5 °F 31.8 °F 34.9 °F 94% 29.38 in 10.0 mi SSW 5.8 mph - N/A   Overcast
5:54 PM 36.3 °F 30.1 °F 34.9 °F 95% 29.38 in 5.0 mi SSW 8.1 mph - N/A Rain Heavy Rain
6:13 PM 36.1 °F 29.9 °F 34.7 °F 94% 29.38 in 1.5 mi SSW 8.1 mph - N/A Rain Heavy Rain
6:34 PM 36.1 °F 29.3 °F 34.7 °F 94% 29.38 in 2.0 mi SSW 9.2 mph - N/A   Drizzle
6:54 PM 36.0 °F 29.6 °F 34.7 °F 95% 29.39 in 4.0 mi SSW 8.1 mph - N/A   Drizzle
7:13 PM 36.1 °F 31.4 °F 34.9 °F 95% 29.39 in 2.5 mi SW 5.8 mph - N/A   Heavy Drizzle
7:34 PM 36.5 °F 31.0 °F 35.1 °F 95% 29.39 in 2.0 mi SSW 6.9 mph - N/A Rain Rain
7:54 PM 36.7 °F 28.9 °F 35.4 °F 95% 29.39 in 2.5 mi SW 11.5 mph - N/A Rain Light Rain
8:13 PM 37.0 °F 28.5 °F 35.8 °F 95% 29.39 in 5.0 mi SW 13.8 mph - N/A Rain Rain
8:34 PM 37.9 °F 29.6 °F 36.5 °F 95% 29.40 in 7.0 mi WSW 13.8 mph 19.6 mph N/A Rain Rain
8:54 PM 37.9 °F 29.2 °F 35.8 °F 92% 29.41 in 7.0 mi WSW 15.0 mph 21.9 mph N/A   Drizzle
9:13 PM 37.6 °F 29.6 °F 35.6 °F 93% 29.42 in 7.0 mi WSW 12.7 mph - N/A Rain Light Rain
9:34 PM 37.4 °F 30.3 °F 35.1 °F 91% 29.44 in 7.0 mi WSW 10.4 mph - N/A   Drizzle
9:54 PM 36.9 °F 29.1 °F 34.7 °F 92% 29.45 in 10.0 mi WSW 11.5 mph - N/A   Light Drizzle
10:13 PM 36.9 °F 28.2 °F 34.3 °F 91% 29.45 in 10.0 mi West 13.8 mph 19.6 mph N/A   Overcast
10:34 PM 36.1 °F 26.9 °F 33.1 °F 89% 29.47 in 7.0 mi West 15.0 mph - N/A Rain Rain
10:54 PM 35.6 °F 26.6 °F 33.1 °F 91% 29.49 in 7.0 mi West 13.8 mph 18.4 mph N/A Rain Light Rain
11:13 PM 34.7 °F 26.9 °F 32.9 °F 93% 29.50 in 5.0 mi West 10.4 mph - N/A Snow Light Snow
11:34 PM 34.2 °F 26.8 °F 32.2 °F 92% 29.52 in 4.0 mi West 9.2 mph - N/A Snow Light Snow
11:54 PM 34.0 °F 24.2 °F 32.0 °F 92% 29.53 in 5.0 mi West 15.0 mph 21.9 mph N/A Snow Light Snow